Palermo, Italy
Current Conditions -  °F | °C
As of 7:50 PM on Tuesday 27 Jan 2015 (Local Time) from LICJ Reporting Station
Few Clouds Few Clouds  
Wind Chill:   Ceiling: Unl
Heat Index:   Visibility: 6mi
Dew Point:   Wind: 5mph
Humidity: 76%   Direction: 150°SSE
Pressure: 29.94"   Gusts: NA
Location:  38.12°N, 13.36°E
Report Text: LICJ 271850Z 15004KT 9999 FEW025 09/05 Q1014
Loading
Personal Weather Stations






























Interactive Weather Map New forecast layout! Learn more

10-Day Weather Forecast

Advertisements
Track Severe Weather on mobile